メインページ
METAR-TAF:

METAR-TAF

空港 :

メンドーサ, アルゼンチン

緯度: 32-50S, 経度: 068-47W, 海抜: 705m

現時点の気象観測

当レポートは26分前の06:00(UTC)に作成
無風
気温 12°C
湿度 94%
気圧 1018 hPa
視程: 8000m
高度2000ftの雲は散在している
高度3000ftの雲は散在している
小霧雨

METAR: SAME 200600Z 00000KT 8000 -DZ SCT020 SCT030 12/11 Q1018

時間: 03:26 (06:26 UTC)

予報

当レポートは1時間26分前の05:00(UTC)に作成
予報は20日の 06時(UTC)から 21日の 06時(UTC)まで有効
南/南東の風 10kt
視程10km以上
高度3000ftの千切れ雲あり
高度4500ftの千切れ雲あり
小霧雨
20日の 10時(UTC)から 20日の 12時(UTC)まで徐々に
の風 5kt
視程10km以上
高度4000ftの雲は散在している
高度6000ftの雲は散在している

TAF: SAME 200500Z 2006/2106 16010KT 9999 -DZ BKN030 BKN045 TX20/2020ZTN12/2010Z BECMG 2010/2012 18005KT 9999 SCT040 SCT060

4,000以上の空港の気象観測と天気予報(METAR報とTAF報)

利用可能な観測所は地図上に黄色い丸と赤い丸で示す。

丸の上にカーソルを重ねると観測所名を参照できる。

次にクリックすると気象観測と天気予報を参照できる。

マップの切り替え:黒色「×」印の緑ボタンをクリックして拡大、「-」印の緑ボタンをクリックして縮小、緑色の三角印をクリックして隣りの地図に切り替え


METAR-TAF: